This is the latest recevied weather packets stored in our database for station/object AE5HO. If no packets are shown the sender has not sent any weather packets the latest 10 day(s).
| Time | Temp. | Humidity | Pressure | Rain* | Wind** | Luminosity | Snow |
|---|---|---|---|---|---|---|---|
| 1787791600 | 30.56° C | 61% | 1012.4 hPa | 0 mm | - | 4 W/m² | - |
| 1787791296 | 30.56° C | 60% | 1012.4 hPa | 0 mm | - | 6 W/m² | - |
| 1787790992 | 30.56° C | 59% | 1012.7 hPa | 0 mm | - | 7 W/m² | - |
| 1787790687 | 31.11° C | 59% | 1012.5 hPa | 0 mm | - | 10 W/m² | - |
| 1787790382 | 31.11° C | 58% | 1012.2 hPa | 0 mm | - | 16 W/m² | - |
| 1787790078 | 31.67° C | 57% | 1012.5 hPa | 0 mm | - | 29 W/m² | - |
| 1787789773 | 31.67° C | 58% | 1012.7 hPa | 0 mm | - | 57 W/m² | - |
| 1787789468 | 32.22° C | 57% | 1012.7 hPa | 0 mm | - | 49 W/m² | - |
| 1787789166 | 31.67° C | 59% | 1012.6 hPa | 0 mm | - | 66 W/m² | - |
| 1787788861 | 31.11° C | 60% | 1012.6 hPa | 0 mm | - | 56 W/m² | - |
| 1787788559 | 30.56° C | 61% | 1012.8 hPa | 0 mm | - | 69 W/m² | - |
| 1787788254 | 30.56° C | 61% | 1012.8 hPa | 0 mm | - | 22 W/m² | - |
| 1787787950 | 30.56° C | 61% | 1013 hPa | 0 mm | - | 17 W/m² | - |
| 1787787644 | 31.11° C | 61% | 1012.9 hPa | 0 mm | - | 16 W/m² | - |
| 1787787343 | 31.11° C | 63% | 1013.5 hPa | 0 mm | - | 11 W/m² | - |
| 1787787043 | 31.67° C | 60% | 1013.5 hPa | 0 mm | - | 9 W/m² | - |
| 1787786743 | 32.22° C | 58% | 1012.9 hPa | 0 mm | - | 7 W/m² | - |
| 1787786438 | 32.78° C | 56% | 1013 hPa | 0 mm | - | 4 W/m² | - |
| 1787786133 | 35.56° C | 50% | 1013 hPa | 0 mm | - | 2 W/m² | - |
| 1787785829 | 35.56° C | 49% | 1012.6 hPa | 0 mm | - | 7 W/m² | - |
| 1787785525 | 36.11° C | 47% | 1012.4 hPa | 0 mm | - | 9 W/m² | - |
| 1787785224 | 36.11° C | 47% | 1012.5 hPa | 0 mm | - | 10 W/m² | - |
| 1787784919 | 36.67° C | 47% | 1012.2 hPa | 0 mm | - | 13 W/m² | - |
| 1787784618 | 36.67° C | 46% | 1012.2 hPa | 0 mm | - | 17 W/m² | - |
| 1787784317 | 36.67° C | 46% | 1012.2 hPa | 0 mm | - | 17 W/m² | - |
* Rain latest hour (hover to see other rain measurements)
** Current wind speed in m/s (hover to see current wind gust speed)